Terminal Aerodrome Forecast
Issued by NWS

Current Version | Previous Version | Text Only | Print | Product List | Glossary On
Versions: 1 2 3 4 5 6 7 8 9 10 11 12
245
FTUS45 KABQ 262332
TAFAEG
TAF
KAEG 262332Z 2700/2724 16013G22KT P6SM OVC200
     FM270300 22010KT P6SM BKN200
     FM270600 29006KT P6SM SCT200
     FM271800 19010KT P6SM SKC
     FM272100 19014G24KT P6SM SKC=

USA.gov is the U.S. government's official web portal to all federal, state and local government web resources and services.